sensor_id;sensor_type;location;lat;lon;timestamp;P1;durP1;ratioP1;P2;durP2;ratioP2
823;SDS011;373;49.342;8.146;2022-08-19T00:01:25;19.48;;;17.67;;
823;SDS011;373;49.342;8.146;2022-08-19T00:03:54;20.58;;;18.73;;
823;SDS011;373;49.342;8.146;2022-08-19T00:06:21;20.00;;;18.20;;
823;SDS011;373;49.342;8.146;2022-08-19T00:08:48;20.60;;;18.75;;
823;SDS011;373;49.342;8.146;2022-08-19T00:11:17;19.90;;;18.05;;
823;SDS011;373;49.342;8.146;2022-08-19T00:13:45;20.13;;;18.40;;
823;SDS011;373;49.342;8.146;2022-08-19T00:16:13;20.60;;;18.80;;
823;SDS011;373;49.342;8.146;2022-08-19T00:18:40;20.40;;;18.70;;
823;SDS011;373;49.342;8.146;2022-08-19T00:21:07;19.23;;;17.42;;
823;SDS011;373;49.342;8.146;2022-08-19T00:23:35;21.40;;;19.25;;
823;SDS011;373;49.342;8.146;2022-08-19T00:26:03;20.38;;;18.58;;
823;SDS011;373;49.342;8.146;2022-08-19T00:28:32;20.50;;;18.80;;
823;SDS011;373;49.342;8.146;2022-08-19T00:31:01;20.08;;;18.17;;
823;SDS011;373;49.342;8.146;2022-08-19T00:33:28;20.40;;;18.70;;
823;SDS011;373;49.342;8.146;2022-08-19T00:35:57;21.33;;;19.33;;
823;SDS011;373;49.342;8.146;2022-08-19T00:38:24;20.52;;;18.83;;
823;SDS011;373;49.342;8.146;2022-08-19T00:40:52;20.00;;;18.30;;
823;SDS011;373;49.342;8.146;2022-08-19T00:43:20;21.17;;;19.27;;
823;SDS011;373;49.342;8.146;2022-08-19T00:45:50;19.45;;;17.75;;
823;SDS011;373;49.342;8.146;2022-08-19T00:48:17;20.92;;;19.13;;
823;SDS011;373;49.342;8.146;2022-08-19T00:50:45;21.13;;;19.20;;
823;SDS011;373;49.342;8.146;2022-08-19T00:53:16;22.52;;;20.52;;
823;SDS011;373;49.342;8.146;2022-08-19T00:55:47;20.90;;;19.00;;
823;SDS011;373;49.342;8.146;2022-08-19T00:58:16;20.98;;;19.17;;
823;SDS011;373;49.342;8.146;2022-08-19T01:00:47;20.92;;;18.92;;
823;SDS011;373;49.342;8.146;2022-08-19T01:03:18;20.92;;;19.00;;
823;SDS011;373;49.342;8.146;2022-08-19T01:05:46;19.85;;;17.95;;
823;SDS011;373;49.342;8.146;2022-08-19T01:08:15;20.35;;;18.58;;
823;SDS011;373;49.342;8.146;2022-08-19T01:10:44;20.90;;;18.95;;
823;SDS011;373;49.342;8.146;2022-08-19T01:13:14;21.23;;;19.38;;
823;SDS011;373;49.342;8.146;2022-08-19T01:15:43;20.80;;;19.00;;
823;SDS011;373;49.342;8.146;2022-08-19T01:18:14;20.95;;;19.05;;
823;SDS011;373;49.342;8.146;2022-08-19T01:20:44;20.70;;;18.80;;
823;SDS011;373;49.342;8.146;2022-08-19T01:23:13;22.63;;;20.60;;
823;SDS011;373;49.342;8.146;2022-08-19T01:25:42;20.83;;;19.10;;
823;SDS011;373;49.342;8.146;2022-08-19T01:28:16;20.67;;;18.90;;
823;SDS011;373;49.342;8.146;2022-08-19T01:30:45;21.67;;;19.65;;
823;SDS011;373;49.342;8.146;2022-08-19T01:33:13;21.15;;;19.17;;
823;SDS011;373;49.342;8.146;2022-08-19T01:35:40;20.63;;;18.70;;
823;SDS011;373;49.342;8.146;2022-08-19T01:38:09;22.13;;;20.10;;
823;SDS011;373;49.342;8.146;2022-08-19T01:40:46;21.40;;;19.60;;
823;SDS011;373;49.342;8.146;2022-08-19T01:43:13;21.92;;;19.98;;
823;SDS011;373;49.342;8.146;2022-08-19T01:45:41;20.73;;;18.70;;
823;SDS011;373;49.342;8.146;2022-08-19T01:48:08;21.23;;;19.42;;
823;SDS011;373;49.342;8.146;2022-08-19T01:50:36;21.05;;;19.15;;
823;SDS011;373;49.342;8.146;2022-08-19T01:53:05;21.58;;;19.70;;
823;SDS011;373;49.342;8.146;2022-08-19T01:55:34;22.35;;;20.35;;
823;SDS011;373;49.342;8.146;2022-08-19T01:58:04;21.50;;;19.50;;
823;SDS011;373;49.342;8.146;2022-08-19T02:00:33;21.88;;;19.88;;
823;SDS011;373;49.342;8.146;2022-08-19T02:03:01;21.58;;;19.73;;
823;SDS011;373;49.342;8.146;2022-08-19T02:05:28;21.20;;;19.40;;
823;SDS011;373;49.342;8.146;2022-08-19T02:07:55;21.88;;;19.98;;
823;SDS011;373;49.342;8.146;2022-08-19T02:10:24;22.35;;;20.45;;
823;SDS011;373;49.342;8.146;2022-08-19T02:12:51;21.90;;;20.00;;
823;SDS011;373;49.342;8.146;2022-08-19T02:15:20;20.27;;;18.58;;
823;SDS011;373;49.342;8.146;2022-08-19T02:17:47;20.65;;;18.92;;
823;SDS011;373;49.342;8.146;2022-08-19T02:20:15;20.50;;;18.70;;
823;SDS011;373;49.342;8.146;2022-08-19T02:22:42;22.15;;;20.25;;
823;SDS011;373;49.342;8.146;2022-08-19T02:25:10;22.00;;;20.10;;
823;SDS011;373;49.342;8.146;2022-08-19T02:27:38;21.40;;;19.52;;
823;SDS011;373;49.342;8.146;2022-08-19T02:30:07;23.27;;;21.25;;
823;SDS011;373;49.342;8.146;2022-08-19T02:32:38;22.35;;;20.55;;
823;SDS011;373;49.342;8.146;2022-08-19T02:35:05;20.80;;;19.02;;
823;SDS011;373;49.342;8.146;2022-08-19T02:37:33;23.42;;;21.30;;
823;SDS011;373;49.342;8.146;2022-08-19T02:40:18;21.95;;;20.15;;
823;SDS011;373;49.342;8.146;2022-08-19T02:42:45;21.98;;;20.08;;
823;SDS011;373;49.342;8.146;2022-08-19T02:45:13;22.45;;;20.55;;
823;SDS011;373;49.342;8.146;2022-08-19T02:47:42;23.58;;;21.25;;
823;SDS011;373;49.342;8.146;2022-08-19T02:50:11;21.40;;;19.40;;
823;SDS011;373;49.342;8.146;2022-08-19T02:52:44;21.40;;;19.50;;
823;SDS011;373;49.342;8.146;2022-08-19T02:55:22;20.77;;;19.02;;
823;SDS011;373;49.342;8.146;2022-08-19T02:57:54;21.55;;;19.73;;
823;SDS011;373;49.342;8.146;2022-08-19T03:00:37;20.13;;;18.40;;
823;SDS011;373;49.342;8.146;2022-08-19T03:06:05;22.05;;;20.05;;
823;SDS011;373;49.342;8.146;2022-08-19T03:08:41;21.88;;;19.88;;
823;SDS011;373;49.342;8.146;2022-08-19T03:11:21;21.55;;;19.73;;
823;SDS011;373;49.342;8.146;2022-08-19T03:13:55;21.90;;;20.00;;
823;SDS011;373;49.342;8.146;2022-08-19T03:16:48;22.10;;;20.23;;
823;SDS011;373;49.342;8.146;2022-08-19T03:19:30;21.45;;;19.65;;
823;SDS011;373;49.342;8.146;2022-08-19T03:22:01;21.88;;;19.98;;
823;SDS011;373;49.342;8.146;2022-08-19T03:24:38;21.27;;;19.48;;
823;SDS011;373;49.342;8.146;2022-08-19T03:27:12;21.30;;;19.23;;
823;SDS011;373;49.342;8.146;2022-08-19T03:29:45;20.70;;;18.98;;
823;SDS011;373;49.342;8.146;2022-08-19T03:32:20;23.13;;;21.05;;
823;SDS011;373;49.342;8.146;2022-08-19T03:35:07;21.48;;;19.58;;
823;SDS011;373;49.342;8.146;2022-08-19T03:37:55;21.25;;;19.45;;
823;SDS011;373;49.342;8.146;2022-08-19T03:40:47;20.73;;;18.92;;
823;SDS011;373;49.342;8.146;2022-08-19T03:43:31;20.38;;;18.77;;
823;SDS011;373;49.342;8.146;2022-08-19T03:46:23;21.55;;;19.75;;
823;SDS011;373;49.342;8.146;2022-08-19T03:49:11;20.60;;;18.85;;
823;SDS011;373;49.342;8.146;2022-08-19T03:51:48;20.23;;;18.52;;
823;SDS011;373;49.342;8.146;2022-08-19T03:54:28;20.08;;;18.48;;
823;SDS011;373;49.342;8.146;2022-08-19T03:57:17;21.52;;;19.45;;
823;SDS011;373;49.342;8.146;2022-08-19T04:00:03;22.60;;;20.52;;
823;SDS011;373;49.342;8.146;2022-08-19T04:02:53;21.77;;;19.83;;
823;SDS011;373;49.342;8.146;2022-08-19T04:05:30;20.80;;;19.10;;
823;SDS011;373;49.342;8.146;2022-08-19T04:08:02;21.25;;;19.27;;
823;SDS011;373;49.342;8.146;2022-08-19T04:10:37;21.40;;;19.58;;
823;SDS011;373;49.342;8.146;2022-08-19T04:13:10;20.30;;;18.60;;
823;SDS011;373;49.342;8.146;2022-08-19T04:15:44;20.63;;;18.83;;
823;SDS011;373;49.342;8.146;2022-08-19T04:20:58;22.20;;;20.40;;
823;SDS011;373;49.342;8.146;2022-08-19T04:23:45;22.25;;;20.33;;
823;SDS011;373;49.342;8.146;2022-08-19T04:26:13;20.75;;;19.05;;
823;SDS011;373;49.342;8.146;2022-08-19T04:28:46;22.27;;;20.30;;
823;SDS011;373;49.342;8.146;2022-08-19T04:31:21;21.10;;;19.30;;
823;SDS011;373;49.342;8.146;2022-08-19T04:34:13;20.48;;;18.58;;
823;SDS011;373;49.342;8.146;2022-08-19T04:36:51;22.95;;;21.05;;
823;SDS011;373;49.342;8.146;2022-08-19T04:39:25;21.35;;;19.55;;
823;SDS011;373;49.342;8.146;2022-08-19T04:42:28;20.77;;;19.02;;
823;SDS011;373;49.342;8.146;2022-08-19T04:45:08;21.80;;;19.80;;
823;SDS011;373;49.342;8.146;2022-08-19T04:47:57;21.48;;;19.52;;
823;SDS011;373;49.342;8.146;2022-08-19T04:50:39;21.42;;;19.50;;
823;SDS011;373;49.342;8.146;2022-08-19T04:53:08;21.20;;;19.33;;
823;SDS011;373;49.342;8.146;2022-08-19T04:55:40;19.65;;;18.10;;
823;SDS011;373;49.342;8.146;2022-08-19T04:58:44;19.80;;;18.05;;
823;SDS011;373;49.342;8.146;2022-08-19T05:01:05;20.00;;;18.35;;
823;SDS011;373;49.342;8.146;2022-08-19T05:03:43;18.70;;;17.20;;
823;SDS011;373;49.342;8.146;2022-08-19T05:06:23;20.30;;;18.52;;
823;SDS011;373;49.342;8.146;2022-08-19T05:09:01;20.48;;;18.77;;
823;SDS011;373;49.342;8.146;2022-08-19T05:11:31;21.02;;;19.23;;
823;SDS011;373;49.342;8.146;2022-08-19T05:16:49;19.23;;;17.45;;
823;SDS011;373;49.342;8.146;2022-08-19T05:19:28;19.45;;;17.85;;
823;SDS011;373;49.342;8.146;2022-08-19T05:22:23;18.75;;;17.23;;
823;SDS011;373;49.342;8.146;2022-08-19T05:25:03;18.75;;;17.08;;
823;SDS011;373;49.342;8.146;2022-08-19T05:27:47;17.85;;;16.40;;
823;SDS011;373;49.342;8.146;2022-08-19T05:30:30;17.42;;;16.02;;
823;SDS011;373;49.342;8.146;2022-08-19T05:33:01;18.77;;;17.20;;
823;SDS011;373;49.342;8.146;2022-08-19T05:35:39;18.17;;;16.40;;
823;SDS011;373;49.342;8.146;2022-08-19T05:38:19;16.13;;;14.73;;
823;SDS011;373;49.342;8.146;2022-08-19T05:41:01;21.02;;;15.70;;
823;SDS011;373;49.342;8.146;2022-08-19T05:43:39;17.30;;;15.65;;
823;SDS011;373;49.342;8.146;2022-08-19T05:46:06;16.48;;;15.07;;
823;SDS011;373;49.342;8.146;2022-08-19T05:48:48;15.90;;;14.48;;
823;SDS011;373;49.342;8.146;2022-08-19T05:51:31;15.65;;;14.35;;
823;SDS011;373;49.342;8.146;2022-08-19T05:54:11;15.27;;;14.07;;
823;SDS011;373;49.342;8.146;2022-08-19T05:56:55;14.07;;;12.80;;
823;SDS011;373;49.342;8.146;2022-08-19T05:59:52;15.13;;;13.82;;
823;SDS011;373;49.342;8.146;2022-08-19T06:02:28;14.73;;;13.50;;
823;SDS011;373;49.342;8.146;2022-08-19T06:05:16;15.43;;;14.02;;
823;SDS011;373;49.342;8.146;2022-08-19T06:08:07;14.23;;;13.02;;
823;SDS011;373;49.342;8.146;2022-08-19T06:11:17;15.05;;;13.65;;
823;SDS011;373;49.342;8.146;2022-08-19T06:14:00;13.85;;;12.65;;
823;SDS011;373;49.342;8.146;2022-08-19T06:16:36;13.75;;;12.57;;
823;SDS011;373;49.342;8.146;2022-08-19T06:19:06;14.32;;;12.93;;
823;SDS011;373;49.342;8.146;2022-08-19T06:21:45;13.15;;;12.05;;
823;SDS011;373;49.342;8.146;2022-08-19T06:24:22;13.40;;;12.18;;
823;SDS011;373;49.342;8.146;2022-08-19T06:26:57;13.00;;;12.00;;
823;SDS011;373;49.342;8.146;2022-08-19T06:29:28;12.65;;;11.55;;
823;SDS011;373;49.342;8.146;2022-08-19T06:32:03;13.35;;;12.20;;
823;SDS011;373;49.342;8.146;2022-08-19T06:34:40;13.02;;;12.02;;
823;SDS011;373;49.342;8.146;2022-08-19T06:37:12;12.75;;;11.55;;
823;SDS011;373;49.342;8.146;2022-08-19T06:39:41;13.10;;;11.93;;
823;SDS011;373;49.342;8.146;2022-08-19T06:42:22;12.93;;;11.82;;
823;SDS011;373;49.342;8.146;2022-08-19T06:44:57;12.80;;;11.80;;
823;SDS011;373;49.342;8.146;2022-08-19T06:48:02;13.40;;;12.10;;
823;SDS011;373;49.342;8.146;2022-08-19T06:50:29;12.18;;;11.18;;
823;SDS011;373;49.342;8.146;2022-08-19T06:53:00;12.00;;;11.00;;
823;SDS011;373;49.342;8.146;2022-08-19T06:55:34;12.65;;;11.55;;
823;SDS011;373;49.342;8.146;2022-08-19T06:58:11;12.77;;;11.73;;
823;SDS011;373;49.342;8.146;2022-08-19T07:00:43;13.10;;;12.00;;
823;SDS011;373;49.342;8.146;2022-08-19T07:03:16;14.02;;;12.23;;
823;SDS011;373;49.342;8.146;2022-08-19T07:06:10;11.35;;;10.45;;
823;SDS011;373;49.342;8.146;2022-08-19T07:08:47;11.98;;;10.98;;
823;SDS011;373;49.342;8.146;2022-08-19T07:11:28;12.40;;;11.30;;
823;SDS011;373;49.342;8.146;2022-08-19T07:13:58;11.68;;;10.68;;
823;SDS011;373;49.342;8.146;2022-08-19T07:16:30;12.55;;;11.55;;
823;SDS011;373;49.342;8.146;2022-08-19T07:19:01;12.48;;;11.32;;
823;SDS011;373;49.342;8.146;2022-08-19T07:21:31;11.88;;;10.88;;
823;SDS011;373;49.342;8.146;2022-08-19T07:24:16;11.50;;;10.60;;
823;SDS011;373;49.342;8.146;2022-08-19T07:27:07;11.57;;;10.57;;
823;SDS011;373;49.342;8.146;2022-08-19T07:29:41;11.95;;;11.05;;
823;SDS011;373;49.342;8.146;2022-08-19T07:32:09;12.05;;;11.02;;
823;SDS011;373;49.342;8.146;2022-08-19T07:34:38;12.52;;;11.48;;
823;SDS011;373;49.342;8.146;2022-08-19T07:37:08;12.95;;;11.90;;
823;SDS011;373;49.342;8.146;2022-08-19T07:39:38;12.25;;;11.02;;
823;SDS011;373;49.342;8.146;2022-08-19T07:42:09;11.15;;;10.23;;
823;SDS011;373;49.342;8.146;2022-08-19T07:44:37;12.15;;;11.15;;
823;SDS011;373;49.342;8.146;2022-08-19T07:47:04;10.70;;;9.80;;
823;SDS011;373;49.342;8.146;2022-08-19T07:49:32;11.52;;;10.52;;
823;SDS011;373;49.342;8.146;2022-08-19T07:52:03;12.00;;;10.90;;
823;SDS011;373;49.342;8.146;2022-08-19T07:54:33;11.30;;;10.23;;
823;SDS011;373;49.342;8.146;2022-08-19T07:57:03;10.60;;;9.77;;
823;SDS011;373;49.342;8.146;2022-08-19T07:59:33;11.15;;;10.25;;
823;SDS011;373;49.342;8.146;2022-08-19T08:02:05;10.32;;;9.43;;
823;SDS011;373;49.342;8.146;2022-08-19T08:04:32;11.40;;;10.30;;
823;SDS011;373;49.342;8.146;2022-08-19T08:07:21;10.07;;;9.20;;
823;SDS011;373;49.342;8.146;2022-08-19T08:10:06;10.18;;;9.25;;
823;SDS011;373;49.342;8.146;2022-08-19T08:12:34;10.10;;;9.20;;
823;SDS011;373;49.342;8.146;2022-08-19T08:15:11;9.95;;;9.25;;
823;SDS011;373;49.342;8.146;2022-08-19T08:17:46;10.43;;;9.55;;
823;SDS011;373;49.342;8.146;2022-08-19T08:20:14;9.85;;;8.95;;
823;SDS011;373;49.342;8.146;2022-08-19T08:22:46;10.57;;;9.52;;
823;SDS011;373;49.342;8.146;2022-08-19T08:25:34;8.50;;;7.80;;
823;SDS011;373;49.342;8.146;2022-08-19T08:28:03;8.02;;;7.43;;
823;SDS011;373;49.342;8.146;2022-08-19T08:30:30;7.85;;;7.32;;
823;SDS011;373;49.342;8.146;2022-08-19T08:33:04;8.18;;;7.57;;
823;SDS011;373;49.342;8.146;2022-08-19T08:35:31;7.30;;;6.70;;
823;SDS011;373;49.342;8.146;2022-08-19T08:40:56;7.93;;;7.22;;
823;SDS011;373;49.342;8.146;2022-08-19T08:43:35;7.80;;;7.10;;
823;SDS011;373;49.342;8.146;2022-08-19T08:46:11;7.57;;;6.88;;
823;SDS011;373;49.342;8.146;2022-08-19T08:48:47;7.22;;;6.72;;
823;SDS011;373;49.342;8.146;2022-08-19T08:51:21;7.45;;;6.85;;
823;SDS011;373;49.342;8.146;2022-08-19T08:53:53;7.00;;;6.40;;
823;SDS011;373;49.342;8.146;2022-08-19T08:56:22;6.38;;;5.88;;
823;SDS011;373;49.342;8.146;2022-08-19T08:58:51;7.13;;;6.53;;
823;SDS011;373;49.342;8.146;2022-08-19T10:53:30;6.63;;;6.13;;
823;SDS011;373;49.342;8.146;2022-08-19T10:56:33;9.02;;;6.78;;
823;SDS011;373;49.342;8.146;2022-08-19T10:59:18;7.57;;;6.85;;
823;SDS011;373;49.342;8.146;2022-08-19T11:02:03;6.97;;;6.45;;
823;SDS011;373;49.342;8.146;2022-08-19T11:04:43;8.43;;;7.68;;
823;SDS011;373;49.342;8.146;2022-08-19T11:07:43;7.60;;;7.10;;
823;SDS011;373;49.342;8.146;2022-08-19T11:14:36;8.15;;;7.45;;
823;SDS011;373;49.342;8.146;2022-08-19T11:17:43;6.70;;;6.20;;
823;SDS011;373;49.342;8.146;2022-08-19T11:21:04;7.55;;;6.95;;
823;SDS011;373;49.342;8.146;2022-08-19T11:23:50;7.38;;;6.82;;
823;SDS011;373;49.342;8.146;2022-08-19T11:26:27;6.80;;;6.40;;
823;SDS011;373;49.342;8.146;2022-08-19T11:29:09;6.85;;;6.35;;
823;SDS011;373;49.342;8.146;2022-08-19T11:31:55;6.63;;;6.22;;
823;SDS011;373;49.342;8.146;2022-08-19T11:34:47;5.85;;;5.35;;
823;SDS011;373;49.342;8.146;2022-08-19T11:37:40;5.20;;;4.90;;
823;SDS011;373;49.342;8.146;2022-08-19T11:41:01;4.38;;;4.15;;
823;SDS011;373;49.342;8.146;2022-08-19T11:47:23;5.00;;;4.70;;
823;SDS011;373;49.342;8.146;2022-08-19T11:50:44;4.70;;;4.40;;
823;SDS011;373;49.342;8.146;2022-08-19T12:01:20;4.18;;;3.88;;
823;SDS011;373;49.342;8.146;2022-08-19T12:04:13;4.18;;;3.88;;
823;SDS011;373;49.342;8.146;2022-08-19T12:07:03;3.97;;;3.70;;
823;SDS011;373;49.342;8.146;2022-08-19T12:10:06;3.47;;;3.17;;
823;SDS011;373;49.342;8.146;2022-08-19T12:13:15;3.08;;;2.88;;
823;SDS011;373;49.342;8.146;2022-08-19T12:16:10;3.40;;;3.20;;
823;SDS011;373;49.342;8.146;2022-08-19T12:19:06;2.90;;;2.70;;
823;SDS011;373;49.342;8.146;2022-08-19T12:22:03;3.35;;;3.05;;
823;SDS011;373;49.342;8.146;2022-08-19T12:25:13;2.80;;;2.65;;
823;SDS011;373;49.342;8.146;2022-08-19T12:31:24;3.05;;;2.85;;
823;SDS011;373;49.342;8.146;2022-08-19T12:34:23;3.03;;;2.83;;
823;SDS011;373;49.342;8.146;2022-08-19T12:37:49;2.80;;;2.70;;
823;SDS011;373;49.342;8.146;2022-08-19T12:40:38;2.97;;;2.63;;
823;SDS011;373;49.342;8.146;2022-08-19T12:43:21;3.03;;;2.83;;
823;SDS011;373;49.342;8.146;2022-08-19T12:45:54;3.10;;;2.80;;
823;SDS011;373;49.342;8.146;2022-08-19T12:48:43;2.90;;;2.70;;
823;SDS011;373;49.342;8.146;2022-08-19T12:51:26;2.58;;;2.38;;
823;SDS011;373;49.342;8.146;2022-08-19T12:54:50;2.88;;;2.67;;
823;SDS011;373;49.342;8.146;2022-08-19T13:02:03;3.08;;;2.88;;
823;SDS011;373;49.342;8.146;2022-08-19T13:05:21;3.05;;;2.85;;
823;SDS011;373;49.342;8.146;2022-08-19T13:08:28;2.70;;;2.60;;
823;SDS011;373;49.342;8.146;2022-08-19T13:11:34;3.05;;;2.55;;
823;SDS011;373;49.342;8.146;2022-08-19T13:14:50;3.35;;;3.00;;
823;SDS011;373;49.342;8.146;2022-08-19T13:17:32;3.15;;;2.53;;
823;SDS011;373;49.342;8.146;2022-08-19T13:21:22;3.13;;;2.92;;
823;SDS011;373;49.342;8.146;2022-08-19T13:24:57;3.40;;;2.70;;
823;SDS011;373;49.342;8.146;2022-08-19T13:32:07;3.20;;;3.00;;
823;SDS011;373;49.342;8.146;2022-08-19T13:38:52;3.00;;;2.80;;
823;SDS011;373;49.342;8.146;2022-08-19T13:41:59;3.40;;;3.10;;
823;SDS011;373;49.342;8.146;2022-08-19T13:45:01;2.80;;;2.60;;
823;SDS011;373;49.342;8.146;2022-08-19T13:51:25;3.38;;;3.17;;
823;SDS011;373;49.342;8.146;2022-08-19T13:58:50;3.30;;;3.10;;
823;SDS011;373;49.342;8.146;2022-08-19T14:02:06;3.30;;;3.10;;
823;SDS011;373;49.342;8.146;2022-08-19T14:04:49;3.20;;;3.00;;
823;SDS011;373;49.342;8.146;2022-08-19T14:07:31;3.85;;;3.55;;
823;SDS011;373;49.342;8.146;2022-08-19T14:10:39;3.70;;;3.33;;
823;SDS011;373;49.342;8.146;2022-08-19T14:13:24;3.28;;;3.08;;
823;SDS011;373;49.342;8.146;2022-08-19T14:16:08;3.33;;;3.08;;
823;SDS011;373;49.342;8.146;2022-08-19T14:19:19;3.53;;;3.30;;
823;SDS011;373;49.342;8.146;2022-08-19T14:22:09;3.10;;;2.90;;
823;SDS011;373;49.342;8.146;2022-08-19T14:25:01;3.67;;;3.38;;
823;SDS011;373;49.342;8.146;2022-08-19T14:27:45;3.25;;;3.05;;
823;SDS011;373;49.342;8.146;2022-08-19T14:31:00;3.00;;;2.80;;
823;SDS011;373;49.342;8.146;2022-08-19T14:34:19;3.55;;;3.25;;
823;SDS011;373;49.342;8.146;2022-08-19T14:40:36;3.78;;;3.50;;
823;SDS011;373;49.342;8.146;2022-08-19T14:43:48;3.85;;;3.55;;
823;SDS011;373;49.342;8.146;2022-08-19T14:46:36;4.07;;;3.78;;
823;SDS011;373;49.342;8.146;2022-08-19T14:52:57;3.45;;;3.22;;
823;SDS011;373;49.342;8.146;2022-08-19T14:55:54;3.65;;;3.45;;
823;SDS011;373;49.342;8.146;2022-08-19T14:59:17;3.50;;;3.30;;
823;SDS011;373;49.342;8.146;2022-08-19T15:02:17;3.88;;;3.53;;
823;SDS011;373;49.342;8.146;2022-08-19T15:05:07;3.97;;;3.67;;
823;SDS011;373;49.342;8.146;2022-08-19T15:08:09;3.75;;;3.45;;
823;SDS011;373;49.342;8.146;2022-08-19T15:10:38;3.95;;;3.60;;
823;SDS011;373;49.342;8.146;2022-08-19T15:13:06;3.75;;;3.47;;
823;SDS011;373;49.342;8.146;2022-08-19T15:15:38;4.55;;;4.15;;
823;SDS011;373;49.342;8.146;2022-08-19T15:18:15;3.97;;;3.67;;
823;SDS011;373;49.342;8.146;2022-08-19T15:20:42;3.85;;;3.65;;
823;SDS011;373;49.342;8.146;2022-08-19T15:23:13;3.60;;;3.40;;
823;SDS011;373;49.342;8.146;2022-08-19T15:25:43;3.40;;;3.20;;
823;SDS011;373;49.342;8.146;2022-08-19T15:28:11;3.55;;;3.35;;
823;SDS011;373;49.342;8.146;2022-08-19T15:30:41;4.03;;;3.72;;
823;SDS011;373;49.342;8.146;2022-08-19T15:33:10;4.05;;;3.58;;
823;SDS011;373;49.342;8.146;2022-08-19T15:35:39;3.38;;;3.05;;
823;SDS011;373;49.342;8.146;2022-08-19T15:38:07;4.05;;;3.78;;
823;SDS011;373;49.342;8.146;2022-08-19T15:40:39;3.75;;;3.45;;
823;SDS011;373;49.342;8.146;2022-08-19T15:43:08;4.28;;;3.97;;
823;SDS011;373;49.342;8.146;2022-08-19T15:45:36;4.15;;;3.85;;
823;SDS011;373;49.342;8.146;2022-08-19T15:48:04;5.30;;;4.50;;
823;SDS011;373;49.342;8.146;2022-08-19T15:50:31;4.20;;;3.78;;
823;SDS011;373;49.342;8.146;2022-08-19T15:53:01;3.83;;;3.42;;
823;SDS011;373;49.342;8.146;2022-08-19T15:55:36;3.45;;;3.00;;
823;SDS011;373;49.342;8.146;2022-08-19T15:58:12;4.75;;;3.67;;
823;SDS011;373;49.342;8.146;2022-08-19T16:00:58;3.42;;;3.22;;
823;SDS011;373;49.342;8.146;2022-08-19T16:03:44;4.07;;;3.80;;
823;SDS011;373;49.342;8.146;2022-08-19T16:06:29;3.90;;;3.70;;
823;SDS011;373;49.342;8.146;2022-08-19T16:09:00;5.72;;;4.00;;
823;SDS011;373;49.342;8.146;2022-08-19T16:11:33;3.63;;;3.42;;
823;SDS011;373;49.342;8.146;2022-08-19T16:14:02;4.03;;;3.70;;
823;SDS011;373;49.342;8.146;2022-08-19T16:16:32;4.82;;;4.22;;
823;SDS011;373;49.342;8.146;2022-08-19T16:19:04;4.38;;;3.85;;
823;SDS011;373;49.342;8.146;2022-08-19T16:21:33;4.47;;;4.07;;
823;SDS011;373;49.342;8.146;2022-08-19T16:24:05;4.95;;;3.75;;
823;SDS011;373;49.342;8.146;2022-08-19T16:26:34;4.82;;;4.35;;
823;SDS011;373;49.342;8.146;2022-08-19T16:29:03;3.83;;;3.50;;
823;SDS011;373;49.342;8.146;2022-08-19T16:31:32;4.22;;;3.97;;
823;SDS011;373;49.342;8.146;2022-08-19T16:34:00;6.22;;;5.63;;
823;SDS011;373;49.342;8.146;2022-08-19T16:36:27;4.00;;;3.72;;
823;SDS011;373;49.342;8.146;2022-08-19T16:38:55;7.60;;;6.90;;
823;SDS011;373;49.342;8.146;2022-08-19T16:41:23;5.43;;;4.93;;
823;SDS011;373;49.342;8.146;2022-08-19T16:43:51;4.65;;;4.35;;
823;SDS011;373;49.342;8.146;2022-08-19T16:46:21;5.15;;;4.75;;
823;SDS011;373;49.342;8.146;2022-08-19T16:48:49;4.55;;;4.15;;
823;SDS011;373;49.342;8.146;2022-08-19T16:51:17;4.72;;;4.43;;
823;SDS011;373;49.342;8.146;2022-08-19T16:53:57;5.88;;;4.50;;
823;SDS011;373;49.342;8.146;2022-08-19T16:56:31;4.47;;;4.18;;
823;SDS011;373;49.342;8.146;2022-08-19T16:59:19;5.22;;;4.85;;
823;SDS011;373;49.342;8.146;2022-08-19T17:01:59;4.90;;;4.55;;
823;SDS011;373;49.342;8.146;2022-08-19T17:04:44;5.30;;;4.90;;
823;SDS011;373;49.342;8.146;2022-08-19T17:07:14;5.38;;;4.55;;
823;SDS011;373;49.342;8.146;2022-08-19T17:09:41;4.65;;;4.32;;
823;SDS011;373;49.342;8.146;2022-08-19T17:12:08;5.15;;;4.75;;
823;SDS011;373;49.342;8.146;2022-08-19T17:14:36;4.82;;;4.45;;
823;SDS011;373;49.342;8.146;2022-08-19T17:19:46;4.95;;;4.65;;
823;SDS011;373;49.342;8.146;2022-08-19T17:22:13;4.88;;;4.57;;
823;SDS011;373;49.342;8.146;2022-08-19T17:24:41;5.88;;;5.03;;
823;SDS011;373;49.342;8.146;2022-08-19T17:27:11;5.30;;;4.80;;
823;SDS011;373;49.342;8.146;2022-08-19T17:29:39;5.20;;;4.80;;
823;SDS011;373;49.342;8.146;2022-08-19T17:32:06;5.68;;;5.18;;
823;SDS011;373;49.342;8.146;2022-08-19T17:34:36;5.20;;;4.80;;
823;SDS011;373;49.342;8.146;2022-08-19T17:37:04;4.80;;;4.40;;
823;SDS011;373;49.342;8.146;2022-08-19T17:39:36;5.18;;;4.78;;
823;SDS011;373;49.342;8.146;2022-08-19T17:42:04;4.70;;;4.30;;
823;SDS011;373;49.342;8.146;2022-08-19T17:44:31;5.30;;;4.90;;
823;SDS011;373;49.342;8.146;2022-08-19T17:47:00;5.40;;;4.90;;
823;SDS011;373;49.342;8.146;2022-08-19T17:49:29;4.35;;;4.00;;
823;SDS011;373;49.342;8.146;2022-08-19T17:51:58;4.57;;;4.22;;
823;SDS011;373;49.342;8.146;2022-08-19T17:54:25;5.00;;;4.60;;
823;SDS011;373;49.342;8.146;2022-08-19T17:56:52;5.07;;;4.68;;
823;SDS011;373;49.342;8.146;2022-08-19T17:59:19;4.57;;;4.18;;
823;SDS011;373;49.342;8.146;2022-08-19T18:01:47;4.95;;;4.60;;
823;SDS011;373;49.342;8.146;2022-08-19T18:04:14;4.60;;;4.30;;
823;SDS011;373;49.342;8.146;2022-08-19T18:06:41;5.28;;;4.90;;
823;SDS011;373;49.342;8.146;2022-08-19T18:09:09;4.85;;;4.45;;
823;SDS011;373;49.342;8.146;2022-08-19T18:11:37;4.70;;;4.40;;
823;SDS011;373;49.342;8.146;2022-08-19T18:14:04;4.85;;;4.45;;
823;SDS011;373;49.342;8.146;2022-08-19T18:16:32;4.63;;;4.32;;
823;SDS011;373;49.342;8.146;2022-08-19T18:19:01;5.18;;;4.78;;
823;SDS011;373;49.342;8.146;2022-08-19T18:21:29;4.88;;;4.57;;
823;SDS011;373;49.342;8.146;2022-08-19T18:23:56;5.25;;;4.75;;
823;SDS011;373;49.342;8.146;2022-08-19T18:26:25;4.78;;;4.47;;
823;SDS011;373;49.342;8.146;2022-08-19T18:28:54;5.22;;;4.90;;
823;SDS011;373;49.342;8.146;2022-08-19T18:31:21;6.53;;;4.75;;
823;SDS011;373;49.342;8.146;2022-08-19T18:33:48;5.20;;;4.70;;
823;SDS011;373;49.342;8.146;2022-08-19T18:36:20;5.07;;;4.57;;
823;SDS011;373;49.342;8.146;2022-08-19T18:38:47;4.90;;;4.60;;
823;SDS011;373;49.342;8.146;2022-08-19T18:41:33;5.45;;;5.05;;
823;SDS011;373;49.342;8.146;2022-08-19T18:44:18;5.75;;;4.60;;
823;SDS011;373;49.342;8.146;2022-08-19T18:47:04;5.72;;;5.32;;
823;SDS011;373;49.342;8.146;2022-08-19T18:49:49;5.70;;;5.20;;
823;SDS011;373;49.342;8.146;2022-08-19T18:52:17;6.53;;;5.93;;
823;SDS011;373;49.342;8.146;2022-08-19T18:54:49;6.35;;;5.80;;
823;SDS011;373;49.342;8.146;2022-08-19T18:57:18;5.47;;;5.07;;
823;SDS011;373;49.342;8.146;2022-08-19T18:59:49;5.35;;;4.95;;
823;SDS011;373;49.342;8.146;2022-08-19T19:02:16;5.90;;;5.50;;
823;SDS011;373;49.342;8.146;2022-08-19T19:04:44;5.85;;;5.35;;
823;SDS011;373;49.342;8.146;2022-08-19T19:07:11;5.65;;;5.22;;
823;SDS011;373;49.342;8.146;2022-08-19T19:09:39;6.07;;;5.55;;
823;SDS011;373;49.342;8.146;2022-08-19T19:12:07;6.32;;;5.82;;
823;SDS011;373;49.342;8.146;2022-08-19T19:14:38;5.07;;;4.68;;
823;SDS011;373;49.342;8.146;2022-08-19T19:17:08;5.70;;;5.30;;
823;SDS011;373;49.342;8.146;2022-08-19T19:19:37;5.78;;;5.38;;
823;SDS011;373;49.342;8.146;2022-08-19T19:22:07;5.68;;;4.85;;
823;SDS011;373;49.342;8.146;2022-08-19T19:24:37;5.25;;;4.85;;
823;SDS011;373;49.342;8.146;2022-08-19T19:27:05;4.78;;;4.38;;
823;SDS011;373;49.342;8.146;2022-08-19T19:29:34;5.78;;;5.20;;